Time,TemperatureF,DewpointF,PressureIn,WindDirection,WindDirectionDegrees,WindSpeedMPH,WindSpeedGustMPH,Humidity,HourlyPrecipIn,Conditions,Clouds,dailyrainin,SolarRadiationWatts/m^2,SoftwareType,DateUTC
2013-08-18 00:02:00,67.0,54.0,-100.00,SW,223,6.0,11.0,64,0.00,,,0.00,0.000000,,2013-08-18 05:02:00,
2013-08-18 00:42:00,66.0,55.0,-100.00,SW,221,5.0,11.0,67,0.00,,,0.00,0.000000,,2013-08-18 05:42:00,
2013-08-18 00:52:00,66.0,55.0,-100.00,SW,221,5.0,11.0,67,0.00,,,0.00,0.000000,,2013-08-18 05:52:00,
2013-08-18 01:01:00,66.0,55.0,-100.00,SW,221,5.0,11.0,67,0.00,,,0.00,0.000000,,2013-08-18 06:01:00,
2013-08-18 01:42:00,65.0,55.0,-100.00,SW,227,5.0,10.0,69,0.00,,,0.00,0.000000,,2013-08-18 06:42:00,
2013-08-18 01:52:00,65.0,55.0,-100.00,SW,227,5.0,10.0,69,0.00,,,0.00,0.000000,,2013-08-18 06:52:00,
2013-08-18 02:01:00,65.0,55.0,-100.00,SW,227,5.0,10.0,69,0.00,,,0.00,0.000000,,2013-08-18 07:01:00,
2013-08-18 02:42:00,66.0,56.0,-100.00,SW,222,6.0,11.0,69,0.00,,,0.00,0.000000,,2013-08-18 07:42:00,
2013-08-18 02:52:00,66.0,56.0,-100.00,SW,222,6.0,11.0,69,0.00,,,0.00,0.000000,,2013-08-18 07:52:00,
2013-08-18 03:01:00,66.0,56.0,-100.00,SW,222,6.0,11.0,69,0.00,,,0.00,0.000000,,2013-08-18 08:01:00,
2013-08-18 03:21:00,65.0,56.0,-100.00,SW,220,6.0,11.0,72,0.00,,,0.00,0.000000,,2013-08-18 08:21:00,
2013-08-18 03:32:00,65.0,56.0,-100.00,SW,220,6.0,11.0,72,0.00,,,0.00,0.000000,,2013-08-18 08:32:00,
2013-08-18 03:42:00,65.0,56.0,-100.00,SW,220,6.0,11.0,72,0.00,,,0.00,0.000000,,2013-08-18 08:42:00,
2013-08-18 03:52:00,65.0,56.0,-100.00,SW,220,6.0,11.0,72,0.00,,,0.00,0.000000,,2013-08-18 08:52:00,
2013-08-18 04:01:00,65.0,56.0,-100.00,SW,220,6.0,11.0,72,0.00,,,0.00,0.000000,,2013-08-18 09:01:00,
2013-08-18 04:43:00,64.0,56.0,-100.00,SW,225,5.0,10.0,75,0.00,,,0.00,0.000000,,2013-08-18 09:43:00,
2013-08-18 04:53:00,64.0,56.0,-100.00,SW,225,5.0,10.0,75,0.00,,,0.00,0.000000,,2013-08-18 09:53:00,
2013-08-18 05:03:00,64.0,56.0,-100.00,SW,225,5.0,10.0,75,0.00,,,0.00,0.000000,,2013-08-18 10:03:00,
2013-08-18 05:43:00,63.0,56.0,-100.00,SW,224,6.0,11.0,77,0.00,,,0.00,0.000000,,2013-08-18 10:43:00,
2013-08-18 05:52:00,63.0,56.0,-100.00,SW,224,6.0,11.0,77,0.00,,,0.00,0.000000,,2013-08-18 10:52:00,
2013-08-18 06:02:00,63.0,56.0,-100.00,SW,224,6.0,11.0,77,0.00,,,0.00,0.000000,,2013-08-18 11:02:00,
2013-08-18 06:42:00,63.0,56.0,-100.00,SW,223,6.0,11.0,79,0.00,,,0.00,0.000000,,2013-08-18 11:42:00,
2013-08-18 06:52:00,63.0,56.0,-100.00,SW,223,6.0,11.0,79,0.00,,,0.00,0.000000,,2013-08-18 11:52:00,
2013-08-18 07:01:00,63.0,56.0,-100.00,SW,223,6.0,11.0,79,0.00,,,0.00,0.000000,,2013-08-18 12:01:00,
2013-08-18 07:42:00,63.0,56.0,-100.00,SW,222,6.0,13.0,79,0.00,,,0.00,16.000000,,2013-08-18 12:42:00,
2013-08-18 07:52:00,63.0,56.0,-100.00,SW,222,6.0,13.0,79,0.00,,,0.00,16.000000,,2013-08-18 12:52:00,
2013-08-18 08:01:00,63.0,56.0,-100.00,SW,222,6.0,13.0,79,0.00,,,0.00,16.000000,,2013-08-18 13:01:00,
2013-08-18 08:42:00,65.0,58.0,-100.00,SW,215,7.0,13.0,77,0.00,,,0.00,120.000000,,2013-08-18 13:42:00,
2013-08-18 08:52:00,65.0,58.0,-100.00,SW,215,7.0,13.0,77,0.00,,,0.00,120.000000,,2013-08-18 13:52:00,
2013-08-18 09:01:00,65.0,58.0,-100.00,SW,215,7.0,13.0,77,0.00,,,0.00,120.000000,,2013-08-18 14:01:00,
2013-08-18 09:42:00,67.0,58.0,-100.00,SW,217,8.0,13.0,73,0.00,,,0.00,253.000000,,2013-08-18 14:42:00,
2013-08-18 09:53:00,67.0,58.0,-100.00,SW,217,8.0,13.0,73,0.00,,,0.00,253.000000,,2013-08-18 14:53:00,
2013-08-18 10:01:00,67.0,58.0,-100.00,SW,217,8.0,13.0,73,0.00,,,0.00,253.000000,,2013-08-18 15:01:00,
2013-08-18 10:43:00,72.0,60.0,-100.00,SSW,202,8.0,16.0,65,0.00,,,0.00,497.000000,,2013-08-18 15:43:00,
2013-08-18 10:54:00,72.0,60.0,-100.00,SSW,202,8.0,16.0,65,0.00,,,0.00,497.000000,,2013-08-18 15:54:00,
2013-08-18 11:03:00,72.0,60.0,-100.00,SSW,202,8.0,16.0,65,0.00,,,0.00,497.000000,,2013-08-18 16:03:00,
2013-08-18 11:42:00,76.0,61.0,-100.00,South,182,8.0,16.0,60,0.00,,,0.00,713.000000,,2013-08-18 16:42:00,
2013-08-18 11:52:00,76.0,61.0,-100.00,South,182,8.0,16.0,60,0.00,,,0.00,713.000000,,2013-08-18 16:52:00,
2013-08-18 12:02:00,76.0,61.0,-100.00,South,182,8.0,16.0,60,0.00,,,0.00,713.000000,,2013-08-18 17:02:00,
2013-08-18 13:42:00,79.0,60.0,-100.00,SSW,213,8.0,18.0,53,-99.99,,,0.00,859.000000,,2013-08-18 18:42:00,
2013-08-18 13:52:00,79.0,60.0,-100.00,SSW,213,8.0,18.0,53,-99.99,,,0.00,859.000000,,2013-08-18 18:52:00,
2013-08-18 14:01:00,79.0,60.0,-100.00,SSW,213,8.0,18.0,53,-99.99,,,0.00,859.000000,,2013-08-18 19:01:00,
2013-08-18 14:22:00,79.0,60.0,-100.00,SSW,203,9.0,18.0,52,0.00,,,0.00,736.000000,,2013-08-18 19:22:00,
2013-08-18 14:32:00,79.0,60.0,-100.00,SSW,203,9.0,18.0,52,0.00,,,0.00,736.000000,,2013-08-18 19:32:00,
2013-08-18 14:42:00,79.0,60.0,-100.00,SSW,203,9.0,18.0,52,0.00,,,0.00,736.000000,,2013-08-18 19:42:00,
2013-08-18 14:52:00,79.0,60.0,-100.00,SSW,203,9.0,18.0,52,0.00,,,0.00,736.000000,,2013-08-18 19:52:00,
2013-08-18 15:02:00,79.0,60.0,-100.00,SSW,203,9.0,18.0,52,0.00,,,0.00,736.000000,,2013-08-18 20:02:00,
2013-08-18 15:42:00,79.0,59.0,-100.00,SW,223,8.0,17.0,50,0.00,,,0.00,564.000000,,2013-08-18 20:42:00,
2013-08-18 15:52:00,79.0,59.0,-100.00,SW,223,8.0,17.0,50,0.00,,,0.00,564.000000,,2013-08-18 20:52:00,
2013-08-18 16:01:00,79.0,59.0,-100.00,SW,223,8.0,17.0,50,0.00,,,0.00,564.000000,,2013-08-18 21:01:00,
2013-08-18 16:42:00,78.0,59.0,-100.00,SW,231,7.0,16.0,52,0.00,,,0.00,382.000000,,2013-08-18 21:42:00,
2013-08-18 16:53:00,78.0,59.0,-100.00,SW,231,7.0,16.0,52,0.00,,,0.00,382.000000,,2013-08-18 21:53:00,
2013-08-18 17:03:00,78.0,59.0,-100.00,SW,231,7.0,16.0,52,0.00,,,0.00,382.000000,,2013-08-18 22:03:00,
2013-08-18 17:42:00,79.0,58.0,-100.00,SSW,205,6.0,15.0,49,0.00,,,0.00,405.000000,,2013-08-18 22:42:00,
2013-08-18 17:52:00,79.0,58.0,-100.00,SSW,205,6.0,15.0,49,0.00,,,0.00,405.000000,,2013-08-18 22:52:00,
2013-08-18 18:02:00,79.0,58.0,-100.00,SSW,205,6.0,15.0,49,0.00,,,0.00,405.000000,,2013-08-18 23:02:00,
2013-08-18 18:42:00,77.0,57.0,-100.00,SSW,210,7.0,16.0,51,0.00,,,0.00,293.000000,,2013-08-18 23:42:00,
2013-08-18 18:52:00,77.0,57.0,-100.00,SSW,210,7.0,16.0,51,0.00,,,0.00,293.000000,,2013-08-18 23:52:00,
2013-08-18 19:02:00,77.0,57.0,-100.00,SSW,210,7.0,16.0,51,0.00,,,0.00,293.000000,,2013-08-19 00:02:00,
2013-08-18 19:22:00,76.0,55.0,-100.00,SSW,205,6.0,15.0,49,0.00,,,0.00,244.000000,,2013-08-19 00:22:00,
2013-08-18 19:32:00,76.0,55.0,-100.00,SSW,205,6.0,15.0,49,0.00,,,0.00,244.000000,,2013-08-19 00:32:00,
2013-08-18 19:42:00,76.0,55.0,-100.00,SSW,205,6.0,15.0,49,0.00,,,0.00,244.000000,,2013-08-19 00:42:00,
2013-08-18 19:52:00,76.0,55.0,-100.00,SSW,205,6.0,15.0,49,0.00,,,0.00,244.000000,,2013-08-19 00:52:00,
2013-08-18 20:02:00,76.0,55.0,-100.00,SSW,205,6.0,15.0,49,0.00,,,0.00,244.000000,,2013-08-19 01:02:00,
2013-08-18 20:04:00,73.0,56.0,-100.00,SSW,205,6.0,12.0,55,0.00,,,0.00,26.000000,,2013-08-19 01:04:00,
2013-08-18 20:42:00,73.0,56.0,-100.00,SSW,205,6.0,12.0,55,0.00,,,0.00,26.000000,,2013-08-19 01:42:00,
2013-08-18 20:52:00,73.0,56.0,-100.00,SSW,205,6.0,12.0,55,0.00,,,0.00,26.000000,,2013-08-19 01:52:00,
2013-08-18 21:42:00,71.0,55.0,-100.00,SSW,208,6.0,12.0,57,0.00,,,0.00,0.000000,,2013-08-19 02:42:00,
2013-08-18 21:52:00,71.0,55.0,-100.00,SSW,208,6.0,12.0,57,0.00,,,0.00,0.000000,,2013-08-19 02:52:00,
2013-08-18 22:01:00,71.0,55.0,-100.00,SSW,208,6.0,12.0,57,0.00,,,0.00,0.000000,,2013-08-19 03:01:00,
2013-08-18 22:42:00,71.0,56.0,-100.00,SW,218,7.0,15.0,59,0.00,,,0.00,0.000000,,2013-08-19 03:42:00,
2013-08-18 22:53:00,71.0,56.0,-100.00,SW,218,7.0,15.0,59,0.00,,,0.00,0.000000,,2013-08-19 03:53:00,
2013-08-18 23:03:00,71.0,56.0,-100.00,SW,218,7.0,15.0,59,0.00,,,0.00,0.000000,,2013-08-19 04:03:00,
2013-08-18 23:42:00,70.0,56.0,-100.00,SW,225,6.0,13.0,62,0.00,,,0.00,0.000000,,2013-08-19 04:42:00,
2013-08-18 23:53:00,70.0,56.0,-100.00,SW,225,6.0,13.0,62,0.00,,,0.00,0.000000,,2013-08-19 04:53:00,